sensor_id;sensor_type;location;lat;lon;timestamp;temperature;humidity
23715;DHT22;12036;50.858;4.472;2023-04-01T00:01:38;10.00;99.90
23715;DHT22;12036;50.858;4.472;2023-04-01T00:04:04;10.00;99.90
23715;DHT22;12036;50.858;4.472;2023-04-01T00:06:29;10.00;99.90
23715;DHT22;12036;50.858;4.472;2023-04-01T00:08:56;10.00;99.90
23715;DHT22;12036;50.858;4.472;2023-04-01T00:11:22;10.10;99.90
23715;DHT22;12036;50.858;4.472;2023-04-01T00:13:48;10.00;99.90
23715;DHT22;12036;50.858;4.472;2023-04-01T00:16:14;10.00;99.90
23715;DHT22;12036;50.858;4.472;2023-04-01T00:18:40;10.00;99.90
23715;DHT22;12036;50.858;4.472;2023-04-01T00:21:06;10.10;99.90
23715;DHT22;12036;50.858;4.472;2023-04-01T00:23:32;10.10;99.90
23715;DHT22;12036;50.858;4.472;2023-04-01T00:26:02;10.10;99.90
23715;DHT22;12036;50.858;4.472;2023-04-01T00:28:28;10.10;99.90
23715;DHT22;12036;50.858;4.472;2023-04-01T00:30:54;10.00;99.90
23715;DHT22;12036;50.858;4.472;2023-04-01T00:33:20;10.00;99.90
23715;DHT22;12036;50.858;4.472;2023-04-01T00:35:46;10.00;99.90
23715;DHT22;12036;50.858;4.472;2023-04-01T00:38:12;10.20;99.90
23715;DHT22;12036;50.858;4.472;2023-04-01T00:40:41;10.10;99.90
23715;DHT22;12036;50.858;4.472;2023-04-01T00:43:25;10.10;99.90
23715;DHT22;12036;50.858;4.472;2023-04-01T00:45:51;10.10;99.90
23715;DHT22;12036;50.858;4.472;2023-04-01T00:48:19;10.00;99.90
23715;DHT22;12036;50.858;4.472;2023-04-01T00:50:53;10.10;99.90
23715;DHT22;12036;50.858;4.472;2023-04-01T00:53:21;10.10;99.90
23715;DHT22;12036;50.858;4.472;2023-04-01T00:55:56;10.10;99.90
23715;DHT22;12036;50.858;4.472;2023-04-01T00:58:24;10.10;99.90
23715;DHT22;12036;50.858;4.472;2023-04-01T01:00:52;10.10;99.90
23715;DHT22;12036;50.858;4.472;2023-04-01T01:03:19;10.20;99.90
23715;DHT22;12036;50.858;4.472;2023-04-01T01:10:56;10.20;99.90
23715;DHT22;12036;50.858;4.472;2023-04-01T01:13:31;10.20;99.90
23715;DHT22;12036;50.858;4.472;2023-04-01T01:19:09;10.20;99.90
23715;DHT22;12036;50.858;4.472;2023-04-01T01:21:50;10.20;99.90
23715;DHT22;12036;50.858;4.472;2023-04-01T01:37:34;10.10;99.90
23715;DHT22;12036;50.858;4.472;2023-04-01T01:40:04;10.20;99.90
23715;DHT22;12036;50.858;4.472;2023-04-01T01:42:31;10.20;99.90
23715;DHT22;12036;50.858;4.472;2023-04-01T01:44:59;10.20;99.90
23715;DHT22;12036;50.858;4.472;2023-04-01T01:47:25;10.20;99.90
23715;DHT22;12036;50.858;4.472;2023-04-01T01:49:53;10.20;99.90
23715;DHT22;12036;50.858;4.472;2023-04-01T01:52:21;10.20;99.90
23715;DHT22;12036;50.858;4.472;2023-04-01T01:54:52;10.20;99.90
23715;DHT22;12036;50.858;4.472;2023-04-01T01:57:26;10.20;99.90
23715;DHT22;12036;50.858;4.472;2023-04-01T02:00:08;10.10;99.90
23715;DHT22;12036;50.858;4.472;2023-04-01T02:02:45;10.10;99.90
23715;DHT22;12036;50.858;4.472;2023-04-01T02:05:24;10.20;99.90
23715;DHT22;12036;50.858;4.472;2023-04-01T02:08:20;10.10;99.90
23715;DHT22;12036;50.858;4.472;2023-04-01T02:10:56;10.10;99.90
23715;DHT22;12036;50.858;4.472;2023-04-01T02:13:33;10.00;99.90
23715;DHT22;12036;50.858;4.472;2023-04-01T02:16:05;10.00;99.90
23715;DHT22;12036;50.858;4.472;2023-04-01T02:18:35;10.00;99.90
23715;DHT22;12036;50.858;4.472;2023-04-01T02:21:04;10.10;99.90
23715;DHT22;12036;50.858;4.472;2023-04-01T02:23:34;10.00;99.90
23715;DHT22;12036;50.858;4.472;2023-04-01T02:26:02;10.10;99.90
23715;DHT22;12036;50.858;4.472;2023-04-01T02:28:29;10.00;99.90
23715;DHT22;12036;50.858;4.472;2023-04-01T02:30:57;10.10;99.90
23715;DHT22;12036;50.858;4.472;2023-04-01T02:33:25;10.00;99.90
23715;DHT22;12036;50.858;4.472;2023-04-01T02:35:52;10.00;99.90
23715;DHT22;12036;50.858;4.472;2023-04-01T02:38:18;9.90;99.90
23715;DHT22;12036;50.858;4.472;2023-04-01T02:40:49;9.90;99.90
23715;DHT22;12036;50.858;4.472;2023-04-01T02:43:15;9.90;99.90
23715;DHT22;12036;50.858;4.472;2023-04-01T02:45:42;9.90;99.90
23715;DHT22;12036;50.858;4.472;2023-04-01T02:48:08;9.90;99.90
23715;DHT22;12036;50.858;4.472;2023-04-01T02:50:34;10.00;99.90
23715;DHT22;12036;50.858;4.472;2023-04-01T02:53:00;9.90;99.90
23715;DHT22;12036;50.858;4.472;2023-04-01T02:55:29;9.90;99.90
23715;DHT22;12036;50.858;4.472;2023-04-01T02:57:55;9.90;99.90
23715;DHT22;12036;50.858;4.472;2023-04-01T03:00:21;9.80;99.90
23715;DHT22;12036;50.858;4.472;2023-04-01T03:02:47;9.80;99.90
23715;DHT22;12036;50.858;4.472;2023-04-01T03:05:12;9.90;99.90
23715;DHT22;12036;50.858;4.472;2023-04-01T03:07:38;9.90;99.90
23715;DHT22;12036;50.858;4.472;2023-04-01T03:10:06;9.90;99.90
23715;DHT22;12036;50.858;4.472;2023-04-01T03:12:31;9.90;99.90
23715;DHT22;12036;50.858;4.472;2023-04-01T03:14:58;9.90;99.90
23715;DHT22;12036;50.858;4.472;2023-04-01T03:17:24;9.90;99.90
23715;DHT22;12036;50.858;4.472;2023-04-01T03:19:49;10.00;99.90
23715;DHT22;12036;50.858;4.472;2023-04-01T03:22:15;10.00;99.90
23715;DHT22;12036;50.858;4.472;2023-04-01T03:24:41;10.00;99.90
23715;DHT22;12036;50.858;4.472;2023-04-01T03:27:06;10.10;99.90
23715;DHT22;12036;50.858;4.472;2023-04-01T03:29:32;10.00;99.90
23715;DHT22;12036;50.858;4.472;2023-04-01T03:31:57;10.00;99.90
23715;DHT22;12036;50.858;4.472;2023-04-01T03:34:24;10.00;99.90
23715;DHT22;12036;50.858;4.472;2023-04-01T03:36:51;10.10;99.90
23715;DHT22;12036;50.858;4.472;2023-04-01T03:39:16;10.00;99.90
23715;DHT22;12036;50.858;4.472;2023-04-01T03:41:44;10.00;99.90
23715;DHT22;12036;50.858;4.472;2023-04-01T03:44:11;10.00;99.90
23715;DHT22;12036;50.858;4.472;2023-04-01T03:46:37;10.10;99.90
23715;DHT22;12036;50.858;4.472;2023-04-01T03:49:05;10.00;99.90
23715;DHT22;12036;50.858;4.472;2023-04-01T03:51:39;10.00;99.90
23715;DHT22;12036;50.858;4.472;2023-04-01T03:54:05;10.10;99.90
23715;DHT22;12036;50.858;4.472;2023-04-01T03:56:32;10.00;99.90
23715;DHT22;12036;50.858;4.472;2023-04-01T03:58:58;10.00;99.90
23715;DHT22;12036;50.858;4.472;2023-04-01T04:01:24;10.00;99.90
23715;DHT22;12036;50.858;4.472;2023-04-01T04:03:50;9.90;99.90
23715;DHT22;12036;50.858;4.472;2023-04-01T04:06:18;10.00;99.90
23715;DHT22;12036;50.858;4.472;2023-04-01T04:08:44;10.10;99.90
23715;DHT22;12036;50.858;4.472;2023-04-01T04:11:10;10.00;99.90
23715;DHT22;12036;50.858;4.472;2023-04-01T04:13:36;10.00;99.90
23715;DHT22;12036;50.858;4.472;2023-04-01T04:16:03;10.00;99.90
23715;DHT22;12036;50.858;4.472;2023-04-01T04:18:29;10.10;99.90
23715;DHT22;12036;50.858;4.472;2023-04-01T04:20:55;10.10;99.90
23715;DHT22;12036;50.858;4.472;2023-04-01T04:23:20;10.10;99.90
23715;DHT22;12036;50.858;4.472;2023-04-01T04:25:57;9.90;99.90
23715;DHT22;12036;50.858;4.472;2023-04-01T04:28:24;10.00;99.90
23715;DHT22;12036;50.858;4.472;2023-04-01T04:30:49;10.00;99.90
23715;DHT22;12036;50.858;4.472;2023-04-01T04:33:15;10.10;99.90
23715;DHT22;12036;50.858;4.472;2023-04-01T04:35:41;10.00;99.90
23715;DHT22;12036;50.858;4.472;2023-04-01T04:38:06;10.10;99.90
23715;DHT22;12036;50.858;4.472;2023-04-01T04:40:32;10.10;99.90
23715;DHT22;12036;50.858;4.472;2023-04-01T04:42:58;9.90;99.90
23715;DHT22;12036;50.858;4.472;2023-04-01T04:45:23;9.90;99.90
23715;DHT22;12036;50.858;4.472;2023-04-01T04:47:49;9.90;99.90
23715;DHT22;12036;50.858;4.472;2023-04-01T04:50:15;9.90;99.90
23715;DHT22;12036;50.858;4.472;2023-04-01T04:52:42;9.90;99.90
23715;DHT22;12036;50.858;4.472;2023-04-01T04:55:08;10.00;99.90
23715;DHT22;12036;50.858;4.472;2023-04-01T04:57:33;10.00;99.90
23715;DHT22;12036;50.858;4.472;2023-04-01T04:59:59;9.90;99.90
23715;DHT22;12036;50.858;4.472;2023-04-01T05:02:24;9.90;99.90
23715;DHT22;12036;50.858;4.472;2023-04-01T05:04:50;10.00;99.90
23715;DHT22;12036;50.858;4.472;2023-04-01T05:07:16;9.90;99.90
23715;DHT22;12036;50.858;4.472;2023-04-01T05:09:41;9.90;99.90
23715;DHT22;12036;50.858;4.472;2023-04-01T05:12:07;9.90;99.90
23715;DHT22;12036;50.858;4.472;2023-04-01T05:14:33;9.90;99.90
23715;DHT22;12036;50.858;4.472;2023-04-01T05:16:58;9.90;99.90
23715;DHT22;12036;50.858;4.472;2023-04-01T05:19:24;9.90;99.90
23715;DHT22;12036;50.858;4.472;2023-04-01T05:21:50;9.90;99.90
23715;DHT22;12036;50.858;4.472;2023-04-01T05:24:15;9.90;99.90
23715;DHT22;12036;50.858;4.472;2023-04-01T05:26:41;9.90;99.90
23715;DHT22;12036;50.858;4.472;2023-04-01T05:29:07;9.80;99.90
23715;DHT22;12036;50.858;4.472;2023-04-01T05:31:32;9.90;99.90
23715;DHT22;12036;50.858;4.472;2023-04-01T05:33:58;9.90;99.90
23715;DHT22;12036;50.858;4.472;2023-04-01T05:36:24;9.90;99.90
23715;DHT22;12036;50.858;4.472;2023-04-01T05:38:49;9.90;99.90
23715;DHT22;12036;50.858;4.472;2023-04-01T05:41:16;9.90;99.90
23715;DHT22;12036;50.858;4.472;2023-04-01T05:43:42;9.80;99.90
23715;DHT22;12036;50.858;4.472;2023-04-01T05:46:07;9.90;99.90
23715;DHT22;12036;50.858;4.472;2023-04-01T05:48:34;9.90;99.90
23715;DHT22;12036;50.858;4.472;2023-04-01T05:51:03;10.00;99.90
23715;DHT22;12036;50.858;4.472;2023-04-01T05:53:29;9.90;99.90
23715;DHT22;12036;50.858;4.472;2023-04-01T05:55:55;9.80;99.90
23715;DHT22;12036;50.858;4.472;2023-04-01T05:58:21;9.90;99.90
23715;DHT22;12036;50.858;4.472;2023-04-01T06:00:47;9.80;99.90
23715;DHT22;12036;50.858;4.472;2023-04-01T06:03:12;9.70;99.90
23715;DHT22;12036;50.858;4.472;2023-04-01T06:05:43;9.70;99.90
23715;DHT22;12036;50.858;4.472;2023-04-01T06:08:16;9.80;99.90
23715;DHT22;12036;50.858;4.472;2023-04-01T06:11:01;9.70;99.90
23715;DHT22;12036;50.858;4.472;2023-04-01T06:24:30;9.80;99.90
23715;DHT22;12036;50.858;4.472;2023-04-01T06:35:36;9.80;99.90
23715;DHT22;12036;50.858;4.472;2023-04-01T06:43:36;9.90;99.90
23715;DHT22;12036;50.858;4.472;2023-04-01T06:51:57;9.90;99.90
23715;DHT22;12036;50.858;4.472;2023-04-01T06:54:58;9.90;99.90
23715;DHT22;12036;50.858;4.472;2023-04-01T06:57:31;9.90;99.90
23715;DHT22;12036;50.858;4.472;2023-04-01T07:00:01;9.90;99.90
23715;DHT22;12036;50.858;4.472;2023-04-01T07:02:42;9.90;99.90
23715;DHT22;12036;50.858;4.472;2023-04-01T07:05:11;9.90;99.90
23715;DHT22;12036;50.858;4.472;2023-04-01T07:07:43;9.90;99.90
23715;DHT22;12036;50.858;4.472;2023-04-01T07:10:25;9.80;99.90
23715;DHT22;12036;50.858;4.472;2023-04-01T07:12:58;9.80;99.90
23715;DHT22;12036;50.858;4.472;2023-04-01T07:15:35;9.80;99.90
23715;DHT22;12036;50.858;4.472;2023-04-01T07:18:15;9.80;99.90
23715;DHT22;12036;50.858;4.472;2023-04-01T07:20:43;9.90;99.90
23715;DHT22;12036;50.858;4.472;2023-04-01T07:23:24;10.00;99.90
23715;DHT22;12036;50.858;4.472;2023-04-01T07:25:55;10.00;99.90
23715;DHT22;12036;50.858;4.472;2023-04-01T07:28:21;10.00;99.90
23715;DHT22;12036;50.858;4.472;2023-04-01T07:31:06;10.10;99.90
23715;DHT22;12036;50.858;4.472;2023-04-01T07:36:25;10.10;99.90
23715;DHT22;12036;50.858;4.472;2023-04-01T07:39:06;10.00;99.90
23715;DHT22;12036;50.858;4.472;2023-04-01T07:57:38;10.10;99.90
23715;DHT22;12036;50.858;4.472;2023-04-01T08:10:49;10.10;99.90
23715;DHT22;12036;50.858;4.472;2023-04-01T08:19:12;10.20;99.90
23715;DHT22;12036;50.858;4.472;2023-04-01T08:21:42;10.20;99.90
23715;DHT22;12036;50.858;4.472;2023-04-01T08:24:46;10.20;99.90
23715;DHT22;12036;50.858;4.472;2023-04-01T08:29:50;10.20;99.90
23715;DHT22;12036;50.858;4.472;2023-04-01T08:32:26;10.20;99.90
23715;DHT22;12036;50.858;4.472;2023-04-01T08:35:18;10.30;99.90
23715;DHT22;12036;50.858;4.472;2023-04-01T08:37:45;10.30;99.90
23715;DHT22;12036;50.858;4.472;2023-04-01T08:49:11;10.40;99.90
23715;DHT22;12036;50.858;4.472;2023-04-01T08:57:32;10.40;99.90
23715;DHT22;12036;50.858;4.472;2023-04-01T09:00:23;10.50;99.90
23715;DHT22;12036;50.858;4.472;2023-04-01T09:25:58;10.50;99.90
23715;DHT22;12036;50.858;4.472;2023-04-01T09:28:41;10.60;99.90
23715;DHT22;12036;50.858;4.472;2023-04-01T09:47:59;10.70;99.90
23715;DHT22;12036;50.858;4.472;2023-04-01T09:53:33;10.70;99.90
23715;DHT22;12036;50.858;4.472;2023-04-01T09:59:08;10.80;99.90
23715;DHT22;12036;50.858;4.472;2023-04-01T10:04:42;10.90;99.90
23715;DHT22;12036;50.858;4.472;2023-04-01T10:12:53;11.00;99.90
23715;DHT22;12036;50.858;4.472;2023-04-01T10:15:43;11.00;99.90
23715;DHT22;12036;50.858;4.472;2023-04-01T10:21:06;11.00;99.90
23715;DHT22;12036;50.858;4.472;2023-04-01T10:24:17;11.00;99.90
23715;DHT22;12036;50.858;4.472;2023-04-01T10:54:08;11.10;99.90
23715;DHT22;12036;50.858;4.472;2023-04-01T10:56:48;11.10;99.90
23715;DHT22;12036;50.858;4.472;2023-04-01T11:05:09;11.20;99.90
23715;DHT22;12036;50.858;4.472;2023-04-01T11:16:10;11.20;99.90
23715;DHT22;12036;50.858;4.472;2023-04-01T11:38:06;11.20;99.90
23715;DHT22;12036;50.858;4.472;2023-04-01T12:00:25;11.60;99.90
23715;DHT22;12036;50.858;4.472;2023-04-01T12:08:24;11.60;99.90
23715;DHT22;12036;50.858;4.472;2023-04-01T12:24:49;11.50;99.90
23715;DHT22;12036;50.858;4.472;2023-04-01T12:30:18;11.20;99.90
23715;DHT22;12036;50.858;4.472;2023-04-01T12:32:57;11.10;99.90
23715;DHT22;12036;50.858;4.472;2023-04-01T12:38:26;11.10;99.90
23715;DHT22;12036;50.858;4.472;2023-04-01T12:47:15;11.00;99.90
23715;DHT22;12036;50.858;4.472;2023-04-01T12:55:35;11.00;99.90
23715;DHT22;12036;50.858;4.472;2023-04-01T13:06:39;11.00;99.90
23715;DHT22;12036;50.858;4.472;2023-04-01T13:17:16;10.80;99.90
23715;DHT22;12036;50.858;4.472;2023-04-01T13:22:45;10.70;99.90
23715;DHT22;12036;50.858;4.472;2023-04-01T13:28:20;10.80;99.90
23715;DHT22;12036;50.858;4.472;2023-04-01T13:31:00;10.90;99.90
23715;DHT22;12036;50.858;4.472;2023-04-01T13:36:28;10.90;99.90
23715;DHT22;12036;50.858;4.472;2023-04-01T13:50:47;11.00;99.90
23715;DHT22;12036;50.858;4.472;2023-04-01T13:58:48;10.80;99.90
23715;DHT22;12036;50.858;4.472;2023-04-01T14:04:19;10.90;99.90
23715;DHT22;12036;50.858;4.472;2023-04-01T14:31:53;11.20;99.90
23715;DHT22;12036;50.858;4.472;2023-04-01T14:48:08;11.30;99.90
23715;DHT22;12036;50.858;4.472;2023-04-01T14:50:45;11.30;99.90
23715;DHT22;12036;50.858;4.472;2023-04-01T14:55:58;11.10;99.90
23715;DHT22;12036;50.858;4.472;2023-04-01T14:58:38;11.00;99.90
23715;DHT22;12036;50.858;4.472;2023-04-01T15:13:15;10.90;99.90
23715;DHT22;12036;50.858;4.472;2023-04-01T15:27:40;10.90;99.90
23715;DHT22;12036;50.858;4.472;2023-04-01T15:35:50;10.80;99.90
23715;DHT22;12036;50.858;4.472;2023-04-01T15:55:43;10.50;99.90
23715;DHT22;12036;50.858;4.472;2023-04-01T16:03:37;10.40;99.90
23715;DHT22;12036;50.858;4.472;2023-04-01T16:12:04;10.20;99.90
23715;DHT22;12036;50.858;4.472;2023-04-01T16:17:22;10.10;99.90
23715;DHT22;12036;50.858;4.472;2023-04-01T16:22:38;10.00;99.90
23715;DHT22;12036;50.858;4.472;2023-04-01T16:28:48;9.90;99.90
23715;DHT22;12036;50.858;4.472;2023-04-01T16:31:48;9.90;99.90
23715;DHT22;12036;50.858;4.472;2023-04-01T16:34:35;10.00;99.90
23715;DHT22;12036;50.858;4.472;2023-04-01T16:55:46;10.00;99.90
23715;DHT22;12036;50.858;4.472;2023-04-01T17:01:16;9.90;99.90
23715;DHT22;12036;50.858;4.472;2023-04-01T17:03:45;9.80;99.90
23715;DHT22;12036;50.858;4.472;2023-04-01T17:06:30;9.90;99.90
23715;DHT22;12036;50.858;4.472;2023-04-01T17:11:58;9.80;99.90
23715;DHT22;12036;50.858;4.472;2023-04-01T17:18:10;9.90;99.90
23715;DHT22;12036;50.858;4.472;2023-04-01T17:26:38;9.80;99.90
23715;DHT22;12036;50.858;4.472;2023-04-01T17:32:19;9.70;99.90
23715;DHT22;12036;50.858;4.472;2023-04-01T17:37:53;9.80;99.90
23715;DHT22;12036;50.858;4.472;2023-04-01T17:40:33;9.70;99.90
23715;DHT22;12036;50.858;4.472;2023-04-01T17:43:06;9.70;99.90
23715;DHT22;12036;50.858;4.472;2023-04-01T17:45:53;9.70;99.90
23715;DHT22;12036;50.858;4.472;2023-04-01T17:48:45;9.80;99.90
23715;DHT22;12036;50.858;4.472;2023-04-01T17:51:23;9.80;99.90
23715;DHT22;12036;50.858;4.472;2023-04-01T17:54:17;9.70;99.90
23715;DHT22;12036;50.858;4.472;2023-04-01T18:02:20;9.70;99.90
23715;DHT22;12036;50.858;4.472;2023-04-01T18:11:08;9.70;99.90
23715;DHT22;12036;50.858;4.472;2023-04-01T18:15:49;9.70;99.90
23715;DHT22;12036;50.858;4.472;2023-04-01T18:21:05;9.70;99.90
23715;DHT22;12036;50.858;4.472;2023-04-01T18:23:58;9.60;99.90
23715;DHT22;12036;50.858;4.472;2023-04-01T18:26:31;9.80;99.90
23715;DHT22;12036;50.858;4.472;2023-04-01T18:31:51;9.80;99.90
23715;DHT22;12036;50.858;4.472;2023-04-01T18:36:56;9.70;99.90
23715;DHT22;12036;50.858;4.472;2023-04-01T18:39:35;9.70;99.90
23715;DHT22;12036;50.858;4.472;2023-04-01T18:44:56;9.70;99.90
23715;DHT22;12036;50.858;4.472;2023-04-01T18:47:45;9.70;99.90
23715;DHT22;12036;50.858;4.472;2023-04-01T18:55:47;9.60;99.90
23715;DHT22;12036;50.858;4.472;2023-04-01T19:01:16;9.50;99.90
23715;DHT22;12036;50.858;4.472;2023-04-01T19:04:04;9.40;99.90
23715;DHT22;12036;50.858;4.472;2023-04-01T19:06:41;9.40;99.90
23715;DHT22;12036;50.858;4.472;2023-04-01T19:15:06;9.40;99.90
23715;DHT22;12036;50.858;4.472;2023-04-01T19:21:16;9.50;99.90
23715;DHT22;12036;50.858;4.472;2023-04-01T19:26:17;9.40;99.90
23715;DHT22;12036;50.858;4.472;2023-04-01T19:36:50;9.40;99.90
23715;DHT22;12036;50.858;4.472;2023-04-01T19:47:30;9.40;99.90
23715;DHT22;12036;50.858;4.472;2023-04-01T19:50:27;9.40;99.90
23715;DHT22;12036;50.858;4.472;2023-04-01T19:53:18;9.40;99.90
23715;DHT22;12036;50.858;4.472;2023-04-01T19:56:16;9.40;99.90
23715;DHT22;12036;50.858;4.472;2023-04-01T20:01:14;9.50;99.90
23715;DHT22;12036;50.858;4.472;2023-04-01T20:04:01;9.40;99.90
23715;DHT22;12036;50.858;4.472;2023-04-01T20:17:13;9.30;99.90
23715;DHT22;12036;50.858;4.472;2023-04-01T20:20:17;9.30;99.90
23715;DHT22;12036;50.858;4.472;2023-04-01T20:25:23;9.30;99.90
23715;DHT22;12036;50.858;4.472;2023-04-01T20:27:58;9.40;99.90
23715;DHT22;12036;50.858;4.472;2023-04-01T20:34:04;9.30;99.90
23715;DHT22;12036;50.858;4.472;2023-04-01T20:47:08;9.40;99.90
23715;DHT22;12036;50.858;4.472;2023-04-01T21:09:01;9.50;99.90
23715;DHT22;12036;50.858;4.472;2023-04-01T21:11:51;9.50;99.90
23715;DHT22;12036;50.858;4.472;2023-04-01T21:17:42;9.50;99.90
23715;DHT22;12036;50.858;4.472;2023-04-01T21:49:47;9.70;99.90
23715;DHT22;12036;50.858;4.472;2023-04-01T22:00:38;9.70;99.90
23715;DHT22;12036;50.858;4.472;2023-04-01T22:03:34;9.70;99.90
23715;DHT22;12036;50.858;4.472;2023-04-01T22:20:23;9.90;99.90
23715;DHT22;12036;50.858;4.472;2023-04-01T22:25:37;9.90;99.90
23715;DHT22;12036;50.858;4.472;2023-04-01T22:28:25;9.80;99.90
23715;DHT22;12036;50.858;4.472;2023-04-01T22:31:01;9.90;99.90
23715;DHT22;12036;50.858;4.472;2023-04-01T22:36:04;9.90;99.90
23715;DHT22;12036;50.858;4.472;2023-04-01T22:44:38;9.90;99.90
23715;DHT22;12036;50.858;4.472;2023-04-01T22:56:07;9.90;99.90
23715;DHT22;12036;50.858;4.472;2023-04-01T22:58:55;9.80;99.90
23715;DHT22;12036;50.858;4.472;2023-04-01T23:01:29;9.80;99.90
23715;DHT22;12036;50.858;4.472;2023-04-01T23:03:56;9.80;99.90
23715;DHT22;12036;50.858;4.472;2023-04-01T23:06:34;9.80;99.90
23715;DHT22;12036;50.858;4.472;2023-04-01T23:09:55;9.80;99.90
23715;DHT22;12036;50.858;4.472;2023-04-01T23:14:43;9.70;99.90
23715;DHT22;12036;50.858;4.472;2023-04-01T23:22:39;9.70;99.90
23715;DHT22;12036;50.858;4.472;2023-04-01T23:35:56;9.60;99.90
23715;DHT22;12036;50.858;4.472;2023-04-01T23:38:32;9.60;99.90
23715;DHT22;12036;50.858;4.472;2023-04-01T23:41:00;9.70;99.90
23715;DHT22;12036;50.858;4.472;2023-04-01T23:43:39;9.60;99.90
23715;DHT22;12036;50.858;4.472;2023-04-01T23:46:07;9.60;99.90
23715;DHT22;12036;50.858;4.472;2023-04-01T23:48:53;9.60;99.90
23715;DHT22;12036;50.858;4.472;2023-04-01T23:51:29;9.60;99.90
23715;DHT22;12036;50.858;4.472;2023-04-01T23:54:11;9.60;99.90
23715;DHT22;12036;50.858;4.472;2023-04-01T23:56:41;9.50;99.90
23715;DHT22;12036;50.858;4.472;2023-04-01T23:59:19;9.50;99.90
